首页
METAR-TAF:

METAR-TAF

机场 :

Roscommon County - Blodgett Memorial Airport

Houghton Lake, 密歇根州, 美国

纬度: 44-21-04N, 经度: 084-40-27W, 海拔: 350米

当前天气观测

该预报发布于51分钟前的13:53 UTC
风速7节,风向
温度 17°C
湿度 68%
气压 1018 hPa
能見度: 16.1公里
阴天层高于3700英尺

METAR: KHTL 221353Z AUTO 01007KT 10SM OVC037 17/11 A3005 RMK AO2 SLP172 T01720111

时间: 10:44 (14:44 UTC)


TAF: 丢失

超过4000个机场的气象观测和天气预报(METAR&TAF报告)。

可查询的气象台以黄色和红色小点在地图上表示。

将鼠标移到小点上方,可查看气象台名称。

然后点击查看天气观测和预报。

如需切换地图:点击带黑十字的绿色按钮放大地图;点击带横线的绿色按钮缩小地图;或者点击绿色箭头查看邻近地区的地图。


METAR-TAF: